Aérodrome :
LOGIN :

S'inscrire | Disclaimer

   EN    FR    IT 

 










Légende :    VFR   VFR Marginal   IFR   IFR Intensif   IFR Très Intensif
Visi : 
Plafond : 
>= 8 km
>= 3000ft
5 à 8 km
1000 à 3000 ft
1500m à 5 km
500 à 1000 ft
800 à 1500m
200 à 500 ft
< 800m
< 200 ft
Symboles :   Orages  Brouillard  Fortes neiges  Fortes précipitations  Vent > 20 kt
SIGMETs :   Divers  Orages  Givrage  Turbulence  Onde Orograph.  Cendres Volcan.






- Altitude de l'aérodrome : 1411 ft
- Code IATA : GVA


LSGG - Genève Cointrin

DERNIER METAR :
  • 160250Z AUTO 05008KT 9999 FEW022 BKN031 M01/M05 Q1026 NOSIG

METARs EXPIRÉS :
  • 160220Z AUTO 05011KT 9999 BKN032 M01/M05 Q1026 NOSIG
  • 160150Z AUTO 05009KT 9999 BKN033 M01/M04 Q1026 NOSIG
  • 160120Z AUTO 05012KT 9999 FEW033 BKN037 M00/M04 Q1026 NOSIG
  • 160050Z AUTO 05012KT 9999 OVC036 M00/M04 Q1026 NOSIG

TAF TAF LSGG
Valide du 16 à 03h jusqu'au 17 à 09h UTC


160225Z 1603/1709 03012KT 9999 BKN030 TX02/1615Z TNM03/1605Z TNM03/1705Z
BECMG 1610/1612 23005KT
BECMG 1620/1623 3000 SN BKN010
BECMG 1701/1703 9999 NSW
ATIS : +41 22 417 40 81



MET'MAP, la Météo Aéronautique d'un coup d'oeil ! - Copyright ORBIFLY Décembre 2007 - Disclaimer

ORBIFLY MET'MAP TEAM :

Programmation & Développement : Alexandra Zaïnal
Sur une idée originale de : Baudouin d'Aumeries
Assistance à la programmation : Marc-Olivier Méhu
Soutien technique & logistique : Manuel Goepfert

Contact : metmap@orbifly.com




SOURCES & CREDITS :

   NOAA